Time;durP1;ratioP1;P1;durP2;ratioP2;P2;SDS_P1;SDS_P2;PMS_P1;PMS_P2;Temp;Humidity;BMP_temperature;BMP_pressure;BME280_temperature;BME280_humidity;BME280_pressure;Samples;Min_cycle;Max_cycle;Signal;HPM_P1;HPM_P2
2022/08/21 00:02:26;;;;;;;1.77;1.20;;;17.30;94.00;;;17.15;64.83;97351.69;5014240;28;20029;-47
2022/08/21 00:04:52;;;;;;;3.78;1.48;;;17.30;94.20;;;17.05;65.91;97339.91;5015930;28;20042;-48
2022/08/21 00:07:19;;;;;;;2.38;1.50;;;17.30;94.50;;;17.04;66.04;97349.69;5019156;28;20033;-46
2022/08/21 00:09:45;;;;;;;2.60;1.48;;;17.20;94.70;;;17.00;66.36;97348.19;5012445;28;20569;-47
2022/08/21 00:12:11;;;;;;;2.80;1.30;;;17.10;94.70;;;16.95;66.73;97345.81;5020533;28;20041;-46
2022/08/21 00:14:37;;;;;;;5.38;1.63;;;17.10;94.90;;;16.96;65.77;97347.53;4993980;28;20025;-45
2022/08/21 00:17:04;;;;;;;3.90;1.40;;;17.10;94.70;;;16.94;65.88;97336.13;5013504;28;20147;-43
2022/08/21 00:19:31;;;;;;;3.47;1.30;;;17.10;94.80;;;16.89;67.09;97351.53;5017560;28;20385;-45
2022/08/21 00:21:56;;;;;;;3.90;1.40;;;17.00;95.10;;;16.84;67.54;97342.97;5017259;28;20999;-46
2022/08/21 00:24:22;;;;;;;2.53;1.50;;;17.00;95.30;;;16.79;67.83;97342.38;5016582;28;20069;-44
2022/08/21 00:26:49;;;;;;;4.15;1.50;;;16.90;95.40;;;16.70;68.65;97338.50;5018626;28;20338;-44
2022/08/21 00:29:17;;;;;;;2.05;1.40;;;16.90;95.70;;;16.69;68.88;97334.13;5016940;28;20505;-45
2022/08/21 00:31:43;;;;;;;3.40;1.40;;;16.80;95.80;;;16.65;69.01;97335.25;5013614;28;20038;-44
2022/08/21 00:34:11;;;;;;;1.95;1.30;;;16.80;95.90;;;16.60;69.34;97327.56;4988121;28;20062;-43
2022/08/21 00:36:37;;;;;;;2.97;1.60;;;16.80;96.00;;;16.54;70.28;97335.06;5014723;28;20033;-45
2022/08/21 00:39:06;;;;;;;3.83;1.40;;;16.70;96.40;;;16.52;70.40;97343.16;5019888;28;20025;-43
2022/08/21 00:41:34;;;;;;;2.25;1.42;;;16.60;96.40;;;16.46;70.77;97335.56;5011609;28;20057;-44
2022/08/21 00:44:00;;;;;;;4.00;1.60;;;16.60;96.50;;;16.41;71.21;97334.97;5014631;28;20025;-44
2022/08/21 00:46:25;;;;;;;3.75;1.60;;;16.50;96.70;;;16.34;72.08;97338.97;5013073;28;20111;-44
2022/08/21 00:48:51;;;;;;;2.40;1.50;;;16.50;97.00;;;16.30;71.79;97335.66;5015847;28;20034;-45
2022/08/21 00:51:25;;;;;;;3.63;1.40;;;16.50;96.90;;;16.31;71.80;97331.16;5016461;28;20033;-44
2022/08/21 00:53:56;;;;;;;2.95;1.50;;;16.50;97.10;;;16.29;72.16;97330.41;4998565;28;20384;-45
2022/08/21 00:56:24;;;;;;;2.30;1.50;;;16.40;97.20;;;16.24;72.57;97328.03;4998577;28;20021;-42
2022/08/21 00:58:51;;;;;;;3.25;1.20;;;16.40;97.30;;;16.20;73.03;97335.34;5016242;28;20025;-45
2022/08/21 01:01:17;;;;;;;1.77;1.30;;;16.30;97.40;;;16.15;73.35;97334.78;5010092;28;20049;-47
2022/08/21 01:03:43;;;;;;;3.80;1.52;;;16.30;97.60;;;16.11;73.94;97327.06;5015113;28;20038;-44
2022/08/21 01:06:09;;;;;;;4.15;1.70;;;16.30;97.80;;;16.09;73.12;97323.66;5014413;28;20036;-47
2022/08/21 01:08:35;;;;;;;3.33;1.55;;;16.30;97.70;;;16.06;73.85;97318.50;5017453;28;20037;-44
2022/08/21 01:11:02;;;;;;;2.28;1.42;;;16.20;97.80;;;16.06;74.51;97323.81;4998191;28;20025;-44
2022/08/21 01:13:33;;;;;;;2.15;1.52;;;16.20;98.10;;;16.03;74.93;97328.38;5014964;28;20057;-46
2022/08/21 01:16:00;;;;;;;2.83;1.15;;;16.20;98.20;;;15.97;75.86;97330.53;5017680;28;20026;-44
2022/08/21 01:18:27;;;;;;;2.80;1.40;;;16.10;98.50;;;15.91;76.76;97323.78;5001241;28;20215;-46
2022/08/21 01:21:01;;;;;;;1.83;1.40;;;16.10;98.90;;;15.88;76.62;97329.31;5016453;28;20038;-47
2022/08/21 01:23:27;;;;;;;2.38;1.60;;;16.10;98.90;;;15.75;76.79;97307.88;5020622;28;20060;-45
2022/08/21 01:25:53;;;;;;;3.95;1.80;;;16.00;99.00;;;15.82;77.21;97325.19;5020166;28;20045;-44
2022/08/21 01:28:21;;;;;;;3.17;1.67;;;16.00;99.10;;;15.79;77.26;97322.75;5021235;28;20017;-45
2022/08/21 01:30:48;;;;;;;1.95;1.42;;;15.90;99.20;;;15.71;77.99;97316.13;5018631;28;20559;-45
2022/08/21 01:33:14;;;;;;;2.20;1.30;;;15.90;99.40;;;15.70;78.55;97328.53;5023339;28;20036;-47
2022/08/21 01:35:40;;;;;;;3.47;1.50;;;15.90;99.60;;;15.62;79.49;97320.16;5022027;28;20037;-43
2022/08/21 01:38:06;;;;;;;3.28;1.40;;;15.80;99.90;;;15.57;79.57;97319.59;5017741;28;20054;-45
2022/08/21 01:40:31;;;;;;;4.28;1.65;;;15.80;99.90;;;15.54;80.25;97317.97;5014602;28;20151;-45
2022/08/21 01:42:57;;;;;;;2.67;1.50;;;15.70;99.90;;;15.50;80.35;97315.56;5015089;28;20030;-44
2022/08/21 01:45:23;;;;;;;2.45;1.45;;;15.70;99.90;;;15.46;80.85;97315.75;5019848;28;20025;-44
2022/08/21 01:47:49;;;;;;;2.13;1.40;;;15.70;99.90;;;15.43;81.17;97310.63;5021332;28;20053;-43
2022/08/21 01:50:19;;;;;;;2.95;1.80;;;15.60;99.90;;;15.42;80.97;97305.41;5020760;28;20025;-47
2022/08/21 01:52:46;;;;;;;3.03;1.70;;;15.60;99.90;;;15.40;81.44;97308.13;5017501;28;20029;-44
2022/08/21 01:55:13;;;;;;;3.80;1.60;;;15.60;99.90;;;15.34;82.37;97312.94;5039704;22;20107;-58
2022/08/21 01:57:39;;;;;;;2.22;1.50;;;15.60;99.90;;;15.28;83.20;97307.03;5005507;28;20389;-57
2022/08/21 02:00:10;;;;;;;2.53;1.58;;;15.50;99.90;;;15.24;83.78;97309.97;5007583;28;20069;-57
2022/08/21 02:02:36;;;;;;;3.63;1.92;;;15.40;99.90;;;15.19;84.12;97306.72;5024201;28;20034;-57
2022/08/21 02:05:03;;;;;;;3.95;1.80;;;15.40;99.90;;;15.14;84.56;97300.81;5023635;28;20503;-57
2022/08/21 02:07:40;;;;;;;2.42;1.40;;;15.40;99.90;;;15.08;85.13;97294.88;5022995;28;20037;-57
2022/08/21 02:10:10;;;;;;;3.90;1.98;;;15.30;99.90;;;15.04;85.95;97293.34;5024012;28;20029;-57
2022/08/21 02:12:36;;;;;;;3.78;1.90;;;15.30;99.90;;;15.02;86.12;97292.59;5024349;28;20029;-59
2022/08/21 02:15:04;;;;;;;2.63;1.80;;;15.20;99.90;;;14.99;86.99;97299.88;5024067;28;20331;-59
2022/08/21 02:17:39;;;;;;;5.57;1.70;;;15.20;99.90;;;14.90;87.30;97290.63;5024651;28;20030;-59
2022/08/21 02:20:06;;;;;;;2.60;1.48;;;15.10;99.90;;;14.92;87.27;97298.50;5021682;28;20026;-59
2022/08/21 02:22:32;;;;;;;3.63;1.67;;;15.10;99.90;;;14.89;87.29;97295.09;5024485;28;20029;-59
2022/08/21 02:24:57;;;;;;;2.72;1.80;;;15.10;99.90;;;14.86;87.84;97292.59;5025075;28;20021;-58
2022/08/21 02:27:24;;;;;;;2.65;1.63;;;15.10;99.90;;;14.82;88.24;97295.50;5022510;28;20029;-59
2022/08/21 02:29:49;;;;;;;3.25;1.60;;;15.00;99.90;;;14.77;88.56;97289.59;5024628;28;20025;-59
2022/08/21 02:32:15;;;;;;;3.22;1.85;;;15.00;99.90;;;14.76;88.92;97288.72;5023028;28;20026;-59
2022/08/21 02:34:41;;;;;;;5.30;1.73;;;15.00;99.90;;;14.71;89.47;97288.13;5024558;28;20037;-59
2022/08/21 02:37:07;;;;;;;3.00;1.90;;;15.00;99.90;;;14.73;89.51;97282.75;5023528;28;20021;-59
2022/08/21 02:39:32;;;;;;;4.97;1.92;;;15.00;99.90;;;14.69;89.55;97290.88;5022277;28;20041;-59
2022/08/21 02:41:58;;;;;;;4.07;2.10;;;14.90;99.90;;;14.67;89.91;97289.25;5022688;28;20025;-59
2022/08/21 02:44:24;;;;;;;3.67;1.95;;;14.90;99.90;;;14.63;90.26;97290.38;5022364;28;20187;-59
2022/08/21 02:46:49;;;;;;;3.55;1.85;;;14.80;99.90;;;14.59;90.86;97289.69;5022986;28;20029;-59
2022/08/21 02:49:15;;;;;;;2.20;1.70;;;14.80;99.90;;;14.56;91.12;97287.16;5023991;28;20470;-59
2022/08/21 02:51:41;;;;;;;4.18;2.00;;;14.80;99.90;;;14.53;91.89;97279.34;5022317;28;20032;-59
2022/08/21 02:54:06;;;;;;;3.45;1.90;;;14.70;99.90;;;14.48;91.65;97284.03;5022475;28;20406;-59
2022/08/21 02:56:32;;;;;;;3.03;1.70;;;14.70;99.90;;;14.47;91.53;97290.31;5021324;28;20018;-59
2022/08/21 02:58:58;;;;;;;3.35;2.05;;;14.70;99.90;;;14.43;91.19;97292.28;5006468;28;20029;-59
2022/08/21 03:01:24;;;;;;;3.88;1.95;;;14.60;99.90;;;14.40;91.85;97292.44;5023376;28;20018;-59
2022/08/21 03:03:50;;;;;;;2.90;2.00;;;14.60;99.90;;;14.38;93.20;97293.47;5023586;28;20824;-59
2022/08/21 03:06:17;;;;;;;5.82;2.17;;;14.60;99.90;;;14.33;94.30;97291.06;5023426;28;20026;-59
2022/08/21 03:08:44;;;;;;;3.42;2.25;;;14.50;99.90;;;14.29;94.92;97290.34;5023357;28;20077;-59
2022/08/21 03:11:12;;;;;;;3.60;1.88;;;14.50;99.90;;;14.21;95.56;97287.28;5023012;28;20037;-60
2022/08/21 03:13:38;;;;;;;3.83;2.10;;;14.50;99.90;;;14.18;95.94;97282.13;5024222;28;20037;-60
2022/08/21 03:16:04;;;;;;;4.40;1.98;;;14.40;99.90;;;14.17;96.08;97291.00;5022505;28;20063;-59
2022/08/21 03:18:30;;;;;;;3.10;2.20;;;14.40;99.90;;;14.15;96.04;97284.09;5023963;28;20048;-60
2022/08/21 03:20:56;;;;;;;2.78;1.90;;;14.40;99.90;;;14.09;96.21;97277.31;5022882;28;20029;-59
2022/08/21 03:23:22;;;;;;;4.88;2.05;;;14.30;99.90;;;14.04;96.27;97285.50;5022371;28;20022;-58
2022/08/21 03:25:50;;;;;;;2.88;1.73;;;14.30;99.90;;;14.02;96.17;97286.53;5022910;28;20056;-60
2022/08/21 03:28:21;;;;;;;3.88;2.05;;;14.30;99.90;;;14.03;96.07;97293.53;5023570;28;20060;-60
2022/08/21 03:30:50;;;;;;;3.25;1.90;;;14.20;99.90;;;14.00;97.00;97294.56;5022203;28;20069;-59
2022/08/21 03:33:17;;;;;;;3.60;2.17;;;14.20;99.90;;;13.98;97.63;97284.97;5023468;28;20481;-60
2022/08/21 03:35:47;;;;;;;7.32;2.15;;;14.20;99.90;;;13.91;97.58;97279.16;5021904;28;20061;-59
2022/08/21 03:38:13;;;;;;;3.03;1.90;;;14.20;99.90;;;13.93;97.46;97294.03;5004442;28;20037;-59
2022/08/21 03:40:39;;;;;;;5.25;1.95;;;14.20;99.90;;;13.94;97.88;97293.09;5021233;28;20041;-60
2022/08/21 03:43:04;;;;;;;4.93;2.10;;;14.20;99.90;;;13.81;98.73;97273.44;5020454;28;20029;-60
2022/08/21 03:45:30;;;;;;;5.95;2.25;;;14.20;99.90;;;13.89;99.51;97289.81;5020306;28;20515;-60
2022/08/21 03:47:58;;;;;;;3.83;2.10;;;14.10;99.90;;;13.88;99.98;97289.91;5022212;28;20087;-59
2022/08/21 03:50:32;;;;;;;3.78;2.35;;;14.10;99.90;;;13.88;100.00;97296.03;5022025;28;20130;-59
2022/08/21 03:52:58;;;;;;;2.65;2.00;;;14.10;99.90;;;13.89;100.00;97305.72;5003577;28;21001;-60
2022/08/21 03:55:25;;;;;;;4.65;2.15;;;14.10;99.90;;;13.87;100.00;97304.97;5002385;28;20033;-60
2022/08/21 03:57:51;;;;;;;3.65;2.17;;;14.20;99.90;;;13.86;100.00;97305.88;5024202;28;20029;-59
2022/08/21 04:00:19;;;;;;;3.92;2.10;;;14.10;99.90;;;13.74;100.00;97283.50;5021063;28;20156;-60
2022/08/21 04:02:46;;;;;;;3.35;2.00;;;14.10;99.90;;;13.82;100.00;97306.09;5023386;28;20029;-59
2022/08/21 04:05:26;;;;;;;5.57;2.30;;;14.10;99.90;;;13.80;100.00;97306.22;5003097;28;20080;-60
2022/08/21 04:08:00;;;;;;;3.15;2.03;;;14.10;99.90;;;13.78;100.00;97308.06;5006058;28;20493;-60
2022/08/21 04:10:29;;;;;;;3.78;2.05;;;14.10;99.90;;;13.75;100.00;97317.03;5021201;28;20081;-59
2022/08/21 04:12:55;;;;;;;4.90;2.20;;;14.00;99.90;;;13.70;100.00;97299.66;5021146;28;20512;-60
2022/08/21 04:15:23;;;;;;;4.93;2.20;;;14.00;99.90;;;13.64;100.00;97302.59;5021205;28;20037;-59
2022/08/21 04:17:49;;;;;;;4.07;2.10;;;13.90;99.90;;;13.66;100.00;97308.72;5023288;28;20021;-60
2022/08/21 04:20:19;;;;;;;3.00;2.10;;;13.90;99.90;;;13.65;100.00;97306.97;5020276;28;20092;-60
2022/08/21 04:22:45;;;;;;;6.25;2.00;;;13.90;99.90;;;13.67;100.00;97310.41;5023355;28;20025;-59
2022/08/21 04:25:13;;;;;;;3.90;2.20;;;13.90;99.90;;;13.65;100.00;97313.13;5020823;28;20563;-60
2022/08/21 04:27:40;;;;;;;5.53;2.60;;;13.90;99.90;;;13.64;100.00;97323.78;5022314;28;20041;-58
2022/08/21 04:30:08;;;;;;;3.78;2.55;;;13.90;99.90;;;13.65;100.00;97328.19;5022440;28;20560;-57
2022/08/21 04:32:35;;;;;;;4.00;2.33;;;13.80;99.90;;;13.62;100.00;97326.56;5021173;28;20025;-57
2022/08/21 04:35:04;;;;;;;4.63;2.70;;;13.90;99.90;;;13.62;100.00;97325.66;5020209;28;20037;-57
2022/08/21 04:37:30;;;;;;;3.85;2.30;;;13.90;99.90;;;13.57;100.00;97320.63;5020253;28;20064;-58
2022/08/21 04:39:58;;;;;;;5.30;2.30;;;13.80;99.90;;;13.61;100.00;97334.56;5021198;28;20697;-58
2022/08/21 04:42:26;;;;;;;3.05;2.25;;;13.80;99.90;;;13.61;100.00;97338.06;5020270;28;20026;-58
2022/08/21 04:44:51;;;;;;;4.97;2.20;;;13.80;99.90;;;13.63;100.00;97338.84;5005573;28;20026;-57
2022/08/21 04:47:17;;;;;;;4.05;2.33;;;13.80;99.90;;;13.64;100.00;97343.22;5022381;28;20392;-57
2022/08/21 04:49:44;;;;;;;3.15;2.28;;;13.90;99.90;;;13.63;100.00;97333.56;5021973;28;20120;-57
2022/08/21 04:52:13;;;;;;;3.78;2.40;;;13.90;99.90;;;13.71;100.00;97341.97;5020995;28;20025;-57
2022/08/21 04:54:40;;;;;;;4.28;2.30;;;13.90;99.90;;;13.74;100.00;97343.59;5003434;28;20621;-57
2022/08/21 04:57:11;;;;;;;3.53;2.30;;;14.00;99.90;;;13.75;100.00;97345.34;5003725;28;20049;-57
2022/08/21 04:59:48;;;;;;;3.35;2.20;;;14.00;99.90;;;13.80;100.00;97332.72;5002132;28;20064;-58
2022/08/21 05:02:14;;;;;;;4.22;2.45;;;14.00;99.90;;;13.86;100.00;97344.78;5003850;28;20031;-58
2022/08/21 05:04:47;;;;;;;3.03;2.03;;;14.10;99.90;;;13.92;100.00;97344.47;5003588;28;20477;-58
2022/08/21 05:07:17;;;;;;;3.83;2.40;;;14.10;99.90;;;13.96;100.00;97343.38;5004411;28;20030;-57
2022/08/21 05:09:43;;;;;;;4.53;2.55;;;14.20;99.90;;;14.03;100.00;97335.97;5003165;28;20025;-58
2022/08/21 05:12:10;;;;;;;3.58;2.20;;;14.20;99.90;;;14.10;100.00;97347.97;5003055;28;20191;-59
2022/08/21 05:14:36;;;;;;;5.45;2.22;;;14.30;99.90;;;14.15;100.00;97343.28;5019675;28;20029;-59
2022/08/21 05:17:02;;;;;;;2.72;2.17;;;14.40;99.90;;;14.18;100.00;97348.44;5019480;28;20075;-59
2022/08/21 05:19:29;;;;;;;3.55;2.33;;;14.40;99.90;;;14.26;100.00;97351.53;5018708;28;20091;-59
2022/08/21 05:21:54;;;;;;;2.55;1.90;;;14.50;99.90;;;14.33;100.00;97350.25;5019170;28;20075;-59
2022/08/21 05:24:20;;;;;;;3.75;2.10;;;14.60;99.90;;;14.39;100.00;97359.72;5022760;28;20312;-59
2022/08/21 05:26:46;;;;;;;5.10;2.45;;;14.60;99.90;;;14.46;100.00;97354.91;5021509;28;20021;-59
2022/08/21 05:29:14;;;;;;;5.60;2.13;;;14.70;99.90;;;14.54;100.00;97362.50;5022294;28;20373;-59
2022/08/21 05:31:39;;;;;;;5.93;2.30;;;14.80;99.90;;;14.61;100.00;97367.41;5022071;28;20038;-59
2022/08/21 05:34:05;;;;;;;2.85;2.00;;;14.80;99.90;;;14.69;100.00;97369.66;5020495;28;20075;-59
2022/08/21 05:36:31;;;;;;;3.58;2.25;;;14.90;99.90;;;14.78;100.00;97368.28;5017971;28;20449;-59
2022/08/21 05:38:56;;;;;;;3.33;2.00;;;15.00;99.90;;;14.79;100.00;97356.75;5020923;28;20060;-59
2022/08/21 05:41:22;;;;;;;3.05;2.03;;;15.10;99.90;;;14.97;100.00;97366.34;5020102;28;20033;-57
2022/08/21 05:43:49;;;;;;;4.32;1.95;;;15.20;99.90;;;15.08;99.23;97366.59;5019825;28;20018;-58
2022/08/21 05:46:14;;;;;;;3.50;1.70;;;15.30;99.90;;;15.20;99.01;97370.38;5020710;28;20030;-57
2022/08/21 05:48:40;;;;;;;3.70;2.00;;;15.40;99.90;;;15.30;98.13;97372.53;5021275;28;20497;-57
2022/08/21 05:51:11;;;;;;;2.85;2.00;;;15.50;99.90;;;15.40;97.17;97368.41;5022119;28;20528;-58
2022/08/21 05:53:38;;;;;;;3.03;1.90;;;15.60;99.90;;;15.49;96.44;97375.84;4987594;28;20396;-57
2022/08/21 05:56:04;;;;;;;3.05;2.08;;;15.70;99.90;;;15.55;95.92;97370.16;5003536;28;20149;-58
2022/08/21 05:58:32;;;;;;;4.28;2.05;;;15.80;99.90;;;15.64;95.32;97377.59;5016774;28;20037;-58
2022/08/21 06:00:59;;;;;;;3.28;2.10;;;15.90;99.90;;;15.74;94.25;97377.06;5020166;28;20029;-58
2022/08/21 06:03:33;;;;;;;3.33;2.30;;;16.00;99.90;;;15.86;93.12;97373.72;5020320;28;20021;-57
2022/08/21 06:05:59;;;;;;;4.63;2.08;;;16.10;99.90;;;15.96;92.71;97371.41;5020027;28;20022;-58
2022/08/21 06:08:26;;;;;;;5.10;2.45;;;16.20;99.90;;;16.05;92.11;97373.50;5023344;28;20095;-57
2022/08/21 06:10:55;;;;;;;2.90;2.00;;;16.30;99.90;;;16.17;91.94;97370.13;5026296;28;20037;-58
2022/08/21 06:13:22;;;;;;;2.72;2.00;;;16.40;99.90;;;16.28;92.15;97376.63;5022182;28;20040;-58
2022/08/21 06:15:49;;;;;;;3.63;1.95;;;16.50;99.90;;;16.36;91.54;97374.31;5024767;28;20208;-49
2022/08/21 06:18:15;;;;;;;4.50;2.30;;;16.60;99.90;;;16.46;90.43;97375.50;5023760;28;20026;-59
2022/08/21 06:20:41;;;;;;;5.05;2.20;;;16.70;99.90;;;16.58;88.70;97376.53;5007653;28;20057;-58
2022/08/21 06:23:07;;;;;;;3.08;1.90;;;16.80;99.90;;;16.69;87.17;97381.19;5023878;28;20052;-58
2022/08/21 06:25:34;;;;;;;2.58;1.70;;;16.90;99.90;;;16.80;86.27;97387.56;5023663;28;20049;-58
2022/08/21 06:28:06;;;;;;;3.20;2.15;;;17.10;99.90;;;16.92;86.13;97382.44;5006703;28;20470;-58
2022/08/21 06:30:33;;;;;;;3.65;1.80;;;17.10;99.90;;;17.01;85.94;97383.69;5022618;28;20624;-58
2022/08/21 06:32:59;;;;;;;2.67;1.90;;;17.20;99.90;;;17.05;85.54;97378.06;5023699;28;20378;-58
2022/08/21 06:35:25;;;;;;;3.53;1.90;;;17.30;99.90;;;17.15;84.49;97383.66;5022192;28;20084;-58
2022/08/21 06:37:51;;;;;;;4.28;2.00;;;17.40;99.90;;;17.23;83.33;97378.72;5025178;28;20358;-58
2022/08/21 06:40:17;;;;;;;8.43;2.15;;;17.50;99.90;;;17.32;82.14;97378.09;5007700;28;20029;-58
2022/08/21 06:42:43;;;;;;;4.93;2.35;;;17.50;99.90;;;17.42;77.26;97374.84;5024673;28;20021;-58
2022/08/21 06:45:10;;;;;;;5.68;2.45;;;17.70;99.90;;;17.56;77.60;97372.13;5023584;28;20073;-58
2022/08/21 06:47:36;;;;;;;3.60;1.95;;;17.80;99.90;;;17.69;76.70;97374.84;5023132;28;20363;-58
2022/08/21 06:50:02;;;;;;;5.05;1.98;;;17.90;99.90;;;17.80;76.40;97371.47;5023420;28;20489;-58
2022/08/21 06:52:28;;;;;;;3.72;2.15;;;18.00;99.90;;;17.89;75.42;97377.09;5022958;28;20040;-58
2022/08/21 06:54:53;;;;;;;5.38;2.50;;;18.10;99.90;;;18.00;74.37;97368.34;5022999;28;20489;-58
2022/08/21 06:57:19;;;;;;;5.80;2.67;;;18.20;99.90;;;18.06;73.28;97365.25;5021055;28;20037;-57
2022/08/21 06:59:45;;;;;;;2.72;1.88;;;18.30;99.90;;;18.16;74.58;97367.28;5023015;28;20057;-58
2022/08/21 07:02:10;;;;;;;3.58;1.90;;;18.40;99.90;;;18.22;74.08;97364.22;5022522;28;20044;-58
2022/08/21 07:04:36;;;;;;;2.97;2.00;;;18.50;99.90;;;18.39;72.70;97371.06;5023260;28;20022;-58
2022/08/21 07:07:02;;;;;;;3.53;2.17;;;18.60;99.90;;;18.56;71.98;97368.09;5022879;28;20061;-58
2022/08/21 07:09:27;;;;;;;4.57;2.50;;;18.70;99.90;;;18.66;69.63;97366.47;5023096;28;20033;-58
2022/08/21 07:11:55;;;;;;;3.50;2.10;;;18.90;99.90;;;18.81;70.07;97367.25;5024132;28;20055;-58
2022/08/21 07:14:21;;;;;;;4.65;2.08;;;19.00;99.90;;;18.97;69.75;97375.03;5021778;28;20048;-58
2022/08/21 07:16:48;;;;;;;4.43;2.05;;;19.10;99.90;;;19.12;68.79;97369.53;5022798;28;20478;-58
2022/08/21 07:19:14;;;;;;;4.47;2.30;;;19.20;99.90;;;19.21;68.04;97375.06;5019277;28;20045;-58
2022/08/21 07:21:40;;;;;;;6.05;2.42;;;19.30;99.90;;;19.27;66.40;97369.28;5022298;28;20366;-58
2022/08/21 07:24:06;;;;;;;5.88;2.42;;;19.40;99.90;;;19.34;65.34;97366.16;5024296;28;20436;-58
2022/08/21 07:26:32;;;;;;;4.72;2.15;;;19.50;99.90;;;19.34;64.87;97361.66;5020520;28;20396;-58
2022/08/21 07:28:57;;;;;;;3.80;2.25;;;19.50;99.90;;;19.44;64.66;97376.06;5023650;28;20045;-58
2022/08/21 07:31:26;;;;;;;10.10;3.58;;;19.60;99.90;;;19.45;64.02;97356.41;5021163;28;20386;-58
2022/08/21 07:33:53;;;;;;;6.13;2.50;;;19.60;99.90;;;19.58;63.51;97359.00;5022101;28;20049;-58
2022/08/21 07:36:18;;;;;;;5.63;2.67;;;19.70;99.90;;;19.68;62.55;97361.00;5021897;28;20029;-58
2022/08/21 07:38:45;;;;;;;5.35;2.40;;;19.80;99.90;;;19.81;62.57;97367.16;5022201;28;20428;-58
2022/08/21 07:41:20;;;;;;;3.30;2.25;;;19.90;99.90;;;19.99;62.61;97363.13;5023334;28;20047;-58
2022/08/21 07:43:46;;;;;;;6.78;2.65;;;20.00;99.80;;;20.03;61.56;97364.59;5023205;28;20021;-58
2022/08/21 07:46:13;;;;;;;5.55;2.70;;;20.10;99.30;;;20.05;60.44;97358.28;5022448;28;20080;-58
2022/08/21 07:48:39;;;;;;;3.70;2.17;;;20.10;98.80;;;20.14;60.66;97362.91;5023323;28;20046;-58
2022/08/21 07:51:09;;;;;;;7.53;2.40;;;20.20;98.90;;;20.27;60.54;97363.66;5022351;28;20041;-58
2022/08/21 07:53:37;;;;;;;7.68;3.08;;;20.30;98.90;;;20.36;60.04;97362.09;5021631;28;20029;-57
2022/08/21 07:56:04;;;;;;;5.30;2.53;;;20.40;98.60;;;20.52;59.51;97364.47;5054527;22;20592;-47
2022/08/21 07:58:32;;;;;;;6.85;2.70;;;20.60;98.40;;;20.59;57.87;97357.66;5041504;28;20021;-49
2022/08/21 08:00:58;;;;;;;5.07;2.50;;;20.70;98.00;;;20.59;57.59;97352.28;5041829;28;20021;-46
2022/08/21 08:03:23;;;;;;;4.32;2.40;;;20.70;97.40;;;20.70;57.25;97351.47;5041608;28;20018;-47
2022/08/21 08:05:49;;;;;;;4.38;2.55;;;20.80;97.30;;;20.77;57.60;97353.53;5039483;28;20024;-45
2022/08/21 08:08:16;;;;;;;5.88;2.45;;;20.80;97.20;;;20.87;58.54;97352.81;5025614;28;20532;-47
2022/08/21 08:10:42;;;;;;;5.05;2.42;;;20.90;97.20;;;20.96;62.27;97346.69;5041957;28;20103;-46
2022/08/21 08:13:08;;;;;;;5.15;2.40;;;21.00;97.50;;;21.07;60.78;97343.19;5025856;28;20104;-45
2022/08/21 08:15:34;;;;;;;4.78;2.20;;;21.10;98.30;;;21.14;60.50;97342.56;5041426;28;20156;-46
2022/08/21 08:18:00;;;;;;;3.90;2.10;;;21.20;98.20;;;21.25;61.93;97346.22;5027157;28;20120;-46
2022/08/21 08:20:26;;;;;;;5.07;2.20;;;21.20;98.70;;;21.26;61.34;97331.81;5039288;28;20025;-46
2022/08/21 08:22:53;;;;;;;4.45;2.47;;;21.30;98.50;;;21.40;59.07;97344.09;5041879;28;20033;-49
2022/08/21 08:25:21;;;;;;;6.20;2.50;;;21.40;98.00;;;21.52;59.15;97335.91;5042232;28;20037;-47
2022/08/21 08:27:47;;;;;;;3.85;2.20;;;21.60;97.40;;;21.62;58.42;97336.00;5040013;28;20456;-47
2022/08/21 08:30:16;;;;;;;3.70;2.40;;;21.70;97.40;;;21.67;58.79;97338.31;5042404;28;20032;-47
2022/08/21 08:32:42;;;;;;;6.90;2.90;;;21.70;97.60;;;21.66;58.02;97326.75;5041478;28;20032;-47
2022/08/21 08:35:08;;;;;;;4.03;2.35;;;21.70;96.90;;;21.67;57.26;97332.94;5042003;28;20066;-46
2022/08/21 08:37:37;;;;;;;3.67;2.03;;;21.70;96.60;;;21.76;57.51;97334.00;5039980;28;20427;-48
2022/08/21 08:40:05;;;;;;;3.65;2.30;;;21.80;96.90;;;21.83;58.03;97325.31;5024026;28;20071;-46
2022/08/21 08:42:35;;;;;;;7.28;2.80;;;21.80;96.80;;;21.77;55.14;97325.84;5040053;28;20020;-45
2022/08/21 08:45:11;;;;;;;6.05;2.60;;;21.80;95.60;;;21.79;55.25;97323.88;5025393;28;21051;-46
2022/08/21 08:47:42;;;;;;;4.00;2.30;;;21.80;95.60;;;21.92;56.07;97318.31;5039510;28;20020;-45
2022/08/21 08:50:22;;;;;;;7.17;2.83;;;21.90;96.00;;;22.04;55.18;97313.75;5039928;28;20118;-47
2022/08/21 08:53:00;;;;;;;5.55;2.20;;;22.00;95.40;;;22.10;51.33;97314.06;5024198;28;20029;-47
2022/08/21 08:55:38;;;;;;;6.05;2.70;;;22.10;94.40;;;22.16;49.68;97312.69;5024516;28;20037;-48
2022/08/21 08:58:04;;;;;;;7.35;2.78;;;22.10;93.00;;;22.20;48.43;97318.63;5024181;28;20085;-46
2022/08/21 09:00:31;;;;;;;4.00;2.38;;;22.20;91.80;;;22.22;47.37;97312.19;5037898;28;20104;-47
2022/08/21 09:03:02;;;;;;;5.00;2.58;;;22.20;91.30;;;22.28;47.92;97308.13;5039982;28;20025;-46
2022/08/21 09:05:46;;;;;;;7.65;2.65;;;22.30;91.20;;;22.38;49.62;97306.38;5040484;28;20017;-47
2022/08/21 09:08:34;;;;;;;6.95;2.95;;;22.40;92.10;;;22.49;47.45;97308.13;5040874;28;20044;-48
2022/08/21 09:11:13;;;;;;;4.70;2.72;;;22.50;91.00;;;22.56;48.82;97297.66;5034924;28;20252;-45
2022/08/21 09:14:04;;;;;;;5.55;2.55;;;22.60;90.90;;;22.74;49.10;97308.63;5037584;28;20557;-49
2022/08/21 09:16:47;;;;;;;3.35;2.25;;;22.70;91.60;;;22.84;48.89;97309.53;5027671;28;20087;-48
2022/08/21 09:19:33;;;;;;;;;;;22.80;91.70;;;22.90;47.45;97302.75;5040961;28;20039;-50
2022/08/21 09:22:32;;;;;;;5.10;2.65;;;22.90;90.60;;;23.00;46.23;97300.97;5041274;28;20399;-45
2022/08/21 09:25:26;;;;;;;6.88;2.63;;;23.00;89.20;;;23.06;45.33;97305.84;5006934;28;20041;-47
2022/08/21 09:27:52;;;;;;;7.28;2.72;;;23.10;88.10;;;23.08;45.86;97305.69;5040543;28;21836;-46
2022/08/21 09:30:28;;;;;;;3.47;2.63;;;23.10;88.10;;;23.13;45.65;97300.75;5025941;28;20017;-47
2022/08/21 09:32:53;;;;;;;4.05;2.33;;;23.10;88.10;;;23.18;45.62;97293.13;5039743;28;20051;-47
2022/08/21 09:35:22;;;;;;;4.88;2.88;;;23.20;87.80;;;23.28;45.96;97302.06;5039269;28;20065;-47
2022/08/21 09:38:04;;;;;;;5.40;3.00;;;23.30;88.40;;;23.21;44.25;97300.91;5039650;28;20033;-46
2022/08/21 09:40:44;;;;;;;4.82;2.70;;;23.30;85.50;;;23.25;44.91;97305.03;5040606;28;20151;-46
2022/08/21 09:43:12;;;;;;;5.65;3.30;;;23.30;86.10;;;23.28;44.54;97294.00;5041472;28;20111;-46
2022/08/21 09:45:41;;;;;;;6.10;2.70;;;23.30;85.20;;;23.27;45.70;97288.75;5043473;28;20454;-47
2022/08/21 09:48:24;;;;;;;3.60;2.35;;;23.30;86.60;;;23.33;46.00;97291.75;5046463;28;20032;-45
2022/08/21 09:50:52;;;;;;;5.20;2.88;;;23.40;87.40;;;23.40;47.44;97287.50;5043441;28;20939;-46
2022/08/21 09:53:44;;;;;;;4.57;2.63;;;23.40;87.30;;;23.50;46.84;97283.97;5044038;28;20064;-47
2022/08/21 09:59:40;;;;;;;3.50;2.50;;;23.50;86.60;;;23.55;44.67;97289.78;5030321;28;20206;-45
2022/08/21 10:02:28;;;;;;;5.13;3.17;;;23.60;86.50;;;23.47;44.31;97286.94;5026770;28;20041;-47
2022/08/21 10:05:03;;;;;;;10.05;2.90;;;23.50;83.80;;;23.44;44.14;97285.38;5043270;28;20037;-46
2022/08/21 10:07:31;;;;;;;4.90;2.47;;;23.50;84.00;;;23.42;44.66;97276.59;5043513;28;20036;-46
2022/08/21 10:10:09;;;;;;;5.50;2.97;;;23.50;84.10;;;23.50;44.55;97278.56;5027063;28;20104;-48
2022/08/21 10:12:46;;;;;;;8.35;3.20;;;23.50;84.00;;;23.55;44.66;97270.94;5042879;28;20025;-48
2022/08/21 10:15:26;;;;;;;4.50;2.40;;;23.60;84.50;;;23.75;44.06;97280.69;5042809;28;20330;-45
2022/08/21 10:18:13;;;;;;;4.75;2.90;;;23.70;84.00;;;23.79;44.30;97275.88;5029819;28;20027;-47
2022/08/21 10:21:01;;;;;;;5.20;2.75;;;23.80;83.50;;;23.92;44.24;97278.31;5027228;28;20041;-46
2022/08/21 10:23:43;;;;;;;4.25;2.70;;;23.90;83.00;;;23.95;43.80;97273.47;5026473;28;20025;-46
2022/08/21 10:26:43;;;;;;;7.78;3.08;;;24.00;82.00;;;23.97;43.81;97267.97;5040420;28;20024;-46
2022/08/21 10:29:48;;;;;;;7.25;3.00;;;24.00;81.70;;;23.98;43.38;97257.03;5027589;28;20033;-45